Time;durP1;ratioP1;P1;durP2;ratioP2;P2;SDS_P1;SDS_P2;PMS_P1;PMS_P2;Temp;Humidity;BMP_temperature;BMP_pressure;BME280_temperature;BME280_humidity;BME280_pressure;Samples;Min_cycle;Max_cycle;Signal;HPM_P1;HPM_P2
2023/12/31 00:00:16;;;;;;;0.90;0.90;;;;;;;7.57;100.00;99558.47;4969516;28;20097;-64
2023/12/31 00:02:41;;;;;;;0.70;0.70;;;;;;;7.59;100.00;99547.84;4969952;28;20031;-64
2023/12/31 00:05:06;;;;;;;0.90;0.90;;;;;;;7.57;100.00;99534.66;4970147;28;20398;-60
2023/12/31 00:07:33;;;;;;;0.82;0.82;;;;;;;7.54;100.00;99529.47;4966348;28;20038;-60
2023/12/31 00:09:58;;;;;;;0.90;0.90;;;;;;;7.57;100.00;99521.44;4969991;28;20035;-60
2023/12/31 00:12:24;;;;;;;0.80;0.80;;;;;;;7.56;100.00;99524.97;4967579;28;20041;-61
2023/12/31 00:14:49;;;;;;;0.80;0.80;;;;;;;7.56;100.00;99526.75;4952484;28;20127;-60
2023/12/31 00:17:15;;;;;;;0.80;0.80;;;;;;;7.58;100.00;99520.50;4973217;28;20030;-60
2023/12/31 00:19:40;;;;;;;0.80;0.80;;;;;;;7.62;100.00;99502.75;4959231;28;20091;-60
2023/12/31 00:22:07;;;;;;;0.60;0.60;;;;;;;7.67;100.00;99507.03;4967602;28;20035;-60
2023/12/31 00:24:32;;;;;;;0.80;0.80;;;;;;;7.73;100.00;99495.38;4969222;28;20045;-60
2023/12/31 00:26:58;;;;;;;0.80;0.80;;;;;;;7.76;100.00;99488.19;4969009;28;20736;-60
2023/12/31 00:29:23;;;;;;;0.80;0.80;;;;;;;7.80;100.00;99484.56;4982072;28;20509;-60
2023/12/31 00:31:48;;;;;;;0.70;0.70;;;;;;;7.83;100.00;99486.25;4987054;28;20125;-61
2023/12/31 00:34:14;;;;;;;0.88;0.88;;;;;;;7.83;100.00;99487.13;4987505;28;20034;-60
2023/12/31 00:36:39;;;;;;;0.75;0.75;;;;;;;7.87;100.00;99486.09;4985528;28;20030;-61
2023/12/31 00:39:05;;;;;;;0.70;0.70;;;;;;;7.87;100.00;99480.78;4960713;28;20490;-61
2023/12/31 00:41:31;;;;;;;0.80;0.80;;;;;;;7.87;100.00;99472.84;4954668;28;20031;-60
2023/12/31 00:43:57;;;;;;;0.90;0.90;;;;;;;7.90;100.00;99472.78;4948197;29;20145;-60
2023/12/31 00:46:22;;;;;;;0.70;0.70;;;;;;;7.94;100.00;99457.66;4949721;29;20617;-60
2023/12/31 00:48:48;;;;;;;0.90;0.90;;;;;;;7.97;100.00;99457.56;4952672;28;20033;-60
2023/12/31 00:51:14;;;;;;;0.75;0.75;;;;;;;7.96;100.00;99456.69;4949666;29;20431;-60
2023/12/31 00:53:39;;;;;;;0.85;0.85;;;;;;;7.97;100.00;99437.25;4949566;28;20035;-60
2023/12/31 00:56:05;;;;;;;0.90;0.90;;;;;;;7.99;100.00;99435.41;4948876;29;20079;-60
2023/12/31 00:58:30;;;;;;;0.80;0.80;;;;;;;7.99;100.00;99432.75;4952007;28;20042;-60
2023/12/31 01:00:56;;;;;;;0.80;0.80;;;;;;;7.97;100.00;99429.28;4968771;28;20078;-60
2023/12/31 01:03:21;;;;;;;0.80;0.80;;;;;;;8.00;100.00;99436.28;4950830;28;20022;-60
2023/12/31 01:05:47;;;;;;;0.82;0.82;;;;;;;8.00;100.00;99426.56;4969153;28;20065;-60
2023/12/31 01:08:12;;;;;;;0.70;0.70;;;;;;;8.01;100.00;99423.00;4953057;28;20082;-61
2023/12/31 01:10:38;;;;;;;0.90;0.90;;;;;;;8.04;100.00;99420.25;4950076;29;20031;-60
2023/12/31 01:13:03;;;;;;;0.77;0.77;;;;;;;8.11;100.00;99417.38;4949863;29;20031;-59
2023/12/31 01:15:29;;;;;;;0.75;0.75;;;;;;;8.15;100.00;99414.63;4965138;28;20026;-60
2023/12/31 01:17:54;;;;;;;0.80;0.80;;;;;;;8.18;100.00;99406.56;4951185;28;20034;-60
2023/12/31 01:20:20;;;;;;;0.70;0.70;;;;;;;8.24;100.00;99398.44;4949541;29;20134;-60
2023/12/31 01:22:45;;;;;;;0.80;0.80;;;;;;;8.27;100.00;99387.72;4952152;28;20038;-60
2023/12/31 01:25:10;;;;;;;0.77;0.77;;;;;;;8.31;100.00;99393.81;4931070;29;20513;-60
2023/12/31 01:27:36;;;;;;;0.80;0.80;;;;;;;8.33;100.00;99408.75;4950938;28;20030;-61
2023/12/31 01:30:01;;;;;;;0.80;0.80;;;;;;;8.29;100.00;99415.06;4970990;28;20474;-60
2023/12/31 01:32:27;;;;;;;0.90;0.90;;;;;;;8.28;100.00;99409.81;4966600;28;20027;-60
2023/12/31 01:34:57;;;;;;;0.70;0.70;;;;;;;8.29;100.00;99408.88;4970362;28;20315;-60
2023/12/31 01:37:23;;;;;;;0.70;0.70;;;;;;;8.28;100.00;99399.22;4970105;28;20181;-60
2023/12/31 01:39:48;;;;;;;0.90;0.90;;;;;;;8.35;100.00;99400.75;4969412;28;20117;-60
2023/12/31 01:42:13;;;;;;;0.80;0.80;;;;;;;8.41;100.00;99395.22;4968623;28;20081;-61
2023/12/31 01:44:39;;;;;;;0.80;0.80;;;;;;;8.45;100.00;99380.97;4974582;28;20034;-60
2023/12/31 01:47:05;;;;;;;0.80;0.80;;;;;;;8.45;100.00;99375.66;4959501;28;20060;-60
2023/12/31 01:49:32;;;;;;;0.80;0.80;;;;;;;8.49;100.00;99377.28;4952917;29;20728;-60
2023/12/31 01:51:58;;;;;;;0.88;0.88;;;;;;;8.50;100.00;99368.44;4971644;28;20455;-60
2023/12/31 01:54:24;;;;;;;0.90;0.90;;;;;;;8.53;100.00;99363.91;4971911;28;20526;-60
2023/12/31 01:56:53;;;;;;;0.70;0.70;;;;;;;8.55;100.00;99351.44;4951854;28;20055;-60
2023/12/31 01:59:19;;;;;;;0.63;0.63;;;;;;;8.60;100.00;99349.47;4952362;29;20087;-60
2023/12/31 02:01:48;;;;;;;0.82;0.82;;;;;;;8.64;100.00;99345.81;4961276;28;20101;-60
2023/12/31 02:04:14;;;;;;;0.70;0.70;;;;;;;8.22;100.00;99283.69;4956614;28;20033;-60
2023/12/31 02:06:40;;;;;;;0.70;0.70;;;;;;;8.63;100.00;99343.22;4971853;28;20042;-60
2023/12/31 02:09:06;;;;;;;0.70;0.70;;;;;;;8.62;100.00;99337.06;4975957;28;20044;-60
2023/12/31 02:11:32;;;;;;;0.73;0.73;;;;;;;8.67;100.00;99334.22;4970847;28;20033;-60
2023/12/31 02:13:58;;;;;;;0.80;0.80;;;;;;;8.68;100.00;99331.50;4970820;28;20033;-60
2023/12/31 02:16:24;;;;;;;0.80;0.80;;;;;;;8.69;100.00;99321.78;4971328;28;20023;-60
2023/12/31 02:18:49;;;;;;;0.70;0.70;;;;;;;8.70;100.00;99321.72;4987024;28;20038;-60
2023/12/31 02:21:15;;;;;;;0.80;0.80;;;;;;;8.72;100.00;99313.72;4979493;28;20037;-60
2023/12/31 02:23:40;;;;;;;0.80;0.80;;;;;;;8.74;100.00;99319.84;4970473;28;20114;-64
2023/12/31 02:26:11;;;;;;;0.70;0.70;;;;;;;8.75;100.00;99303.00;4956711;28;20027;-63
2023/12/31 02:28:37;;;;;;;0.70;0.70;;;;;;;8.80;99.39;99303.69;4960311;28;20478;-63
2023/12/31 02:31:04;;;;;;;0.70;0.70;;;;;;;8.84;99.75;99297.38;4976535;28;20034;-63
2023/12/31 02:33:29;;;;;;;0.80;0.80;;;;;;;8.77;99.73;99282.59;4978831;28;20030;-63
2023/12/31 02:35:55;;;;;;;0.80;0.80;;;;;;;8.83;99.58;99293.00;4952516;28;20030;-63
2023/12/31 02:38:20;;;;;;;0.73;0.73;;;;;;;8.83;99.57;99295.66;4951829;29;20427;-64
2023/12/31 02:40:46;;;;;;;0.70;0.70;;;;;;;8.79;99.82;99292.25;4953013;28;20031;-63
2023/12/31 02:43:11;;;;;;;0.90;0.90;;;;;;;8.82;100.00;99285.94;4951339;29;20029;-63
2023/12/31 02:45:37;;;;;;;0.80;0.80;;;;;;;8.81;100.00;99276.28;4952329;28;20027;-64
2023/12/31 02:48:02;;;;;;;0.80;0.80;;;;;;;8.84;100.00;99274.38;4970119;28;20049;-63
2023/12/31 02:50:28;;;;;;;0.80;0.80;;;;;;;8.83;100.00;99259.38;4970739;28;20044;-63
2023/12/31 02:52:53;;;;;;;0.90;0.90;;;;;;;8.91;100.00;99269.72;4958762;28;20087;-63
2023/12/31 02:55:19;;;;;;;0.70;0.70;;;;;;;8.89;100.00;99260.94;4953755;28;20039;-63
2023/12/31 02:57:45;;;;;;;0.90;0.90;;;;;;;8.87;100.00;99262.78;4948462;29;20035;-63
2023/12/31 03:00:11;;;;;;;0.82;0.82;;;;;;;8.84;100.00;99250.50;4952259;29;20031;-64
2023/12/31 03:02:37;;;;;;;0.90;0.90;;;;;;;8.82;100.00;99246.16;4933796;29;20483;-64
2023/12/31 03:05:02;;;;;;;0.80;0.80;;;;;;;8.76;100.00;99235.81;4951784;28;20027;-64
2023/12/31 03:07:28;;;;;;;0.90;0.90;;;;;;;8.78;100.00;99247.22;4944927;29;20578;-64
2023/12/31 03:09:53;;;;;;;0.80;0.80;;;;;;;8.74;100.00;99242.94;4945942;28;20105;-63
2023/12/31 03:12:19;;;;;;;0.88;0.88;;;;;;;8.71;100.00;99235.13;4950115;29;20106;-63
2023/12/31 03:14:44;;;;;;;0.75;0.75;;;;;;;8.65;100.00;99216.81;4949491;29;20058;-63
2023/12/31 03:17:09;;;;;;;0.80;0.80;;;;;;;8.63;100.00;99213.34;4949833;29;20449;-64
2023/12/31 03:19:36;;;;;;;0.70;0.70;;;;;;;8.65;100.00;99220.28;4947179;29;20395;-64
2023/12/31 03:22:02;;;;;;;0.80;0.80;;;;;;;8.61;100.00;99210.75;4931815;29;20035;-63
2023/12/31 03:24:27;;;;;;;0.80;0.80;;;;;;;8.58;100.00;99202.88;4932950;29;20031;-63
2023/12/31 03:26:53;;;;;;;0.80;0.80;;;;;;;8.60;100.00;99202.84;4939982;29;20624;-63
2023/12/31 03:29:19;;;;;;;0.70;0.70;;;;;;;8.56;100.00;99193.28;4943717;29;20027;-63
2023/12/31 03:31:44;;;;;;;0.80;0.80;;;;;;;8.54;100.00;99189.81;4938652;29;20120;-64
2023/12/31 03:34:10;;;;;;;0.70;0.70;;;;;;;8.43;100.00;99178.75;4944291;29;20160;-64
2023/12/31 03:36:35;;;;;;;0.82;0.82;;;;;;;8.41;100.00;99191.19;4943057;28;20067;-64
2023/12/31 03:39:01;;;;;;;0.90;0.90;;;;;;;8.34;100.00;99179.09;4951025;29;20122;-64
2023/12/31 03:41:26;;;;;;;0.70;0.70;;;;;;;8.28;100.00;99174.03;4955521;28;20082;-63
2023/12/31 03:43:52;;;;;;;0.80;0.80;;;;;;;8.21;100.00;99183.06;4959571;28;20466;-63
2023/12/31 03:46:17;;;;;;;0.90;0.90;;;;;;;8.18;100.00;99197.31;4930786;29;20099;-63
2023/12/31 03:48:43;;;;;;;0.70;0.70;;;;;;;8.14;100.00;99190.38;4941034;28;20386;-64
2023/12/31 03:51:09;;;;;;;0.70;0.70;;;;;;;8.11;100.00;99185.19;4933195;29;20031;-64
2023/12/31 03:53:35;;;;;;;0.77;0.77;;;;;;;8.10;100.00;99177.31;4949447;28;20891;-64
2023/12/31 03:56:00;;;;;;;0.80;0.80;;;;;;;8.15;100.00;99180.66;4937939;29;20154;-65
2023/12/31 03:58:26;;;;;;;0.90;0.90;;;;;;;8.12;100.00;99164.88;4933729;29;20415;-63
2023/12/31 04:00:51;;;;;;;0.80;0.80;;;;;;;8.11;100.00;99163.13;4931818;29;20028;-64
2023/12/31 04:03:17;;;;;;;0.70;0.70;;;;;;;8.08;100.00;99150.88;4931434;29;20054;-63
2023/12/31 04:05:42;;;;;;;0.80;0.80;;;;;;;8.10;100.00;99154.34;4949917;28;20046;-63
2023/12/31 04:08:07;;;;;;;0.80;0.80;;;;;;;8.12;100.00;99146.34;4950507;29;20026;-63
2023/12/31 04:10:33;;;;;;;0.90;0.90;;;;;;;8.11;100.00;99147.25;4941100;29;20032;-63
2023/12/31 04:12:58;;;;;;;0.85;0.85;;;;;;;8.11;100.00;99152.53;4912547;29;20440;-63
2023/12/31 04:15:24;;;;;;;0.73;0.73;;;;;;;8.08;100.00;99137.63;4930302;29;20024;-63
2023/12/31 04:17:49;;;;;;;1.00;1.00;;;;;;;8.02;100.00;99140.53;4936364;28;20038;-63
2023/12/31 04:20:15;;;;;;;0.82;0.82;;;;;;;7.99;100.00;99137.97;4915281;29;20411;-63
2023/12/31 04:22:40;;;;;;;0.82;0.82;;;;;;;7.94;100.00;99137.25;4946058;29;20038;-64
2023/12/31 04:25:06;;;;;;;0.90;0.90;;;;;;;7.92;100.00;99121.44;4944502;28;20031;-63
2023/12/31 04:27:35;;;;;;;0.82;0.82;;;;;;;7.96;100.00;99119.53;4963843;28;20486;-63
2023/12/31 04:30:01;;;;;;;0.80;0.80;;;;;;;7.95;100.00;99124.00;4969455;28;20439;-63
2023/12/31 04:32:26;;;;;;;0.70;0.70;;;;;;;7.94;100.00;99124.03;4946883;28;20023;-63
2023/12/31 04:34:51;;;;;;;0.80;0.80;;;;;;;7.88;100.00;99124.25;4950129;29;20050;-64
2023/12/31 04:37:17;;;;;;;0.80;0.80;;;;;;;7.82;100.00;99119.19;4949751;29;20090;-63
2023/12/31 04:39:42;;;;;;;0.80;0.80;;;;;;;7.72;100.00;99121.31;4950363;28;20031;-63
2023/12/31 04:42:08;;;;;;;0.80;0.80;;;;;;;7.70;100.00;99133.72;4934668;29;20028;-63
2023/12/31 04:44:33;;;;;;;0.80;0.80;;;;;;;7.64;100.00;99133.91;4930887;29;20027;-63
2023/12/31 04:46:58;;;;;;;0.75;0.75;;;;;;;7.62;100.00;99132.25;4933211;29;20118;-63
2023/12/31 04:49:24;;;;;;;1.00;1.00;;;;;;;7.56;100.00;99128.03;4930409;29;20100;-63
2023/12/31 04:51:49;;;;;;;0.80;0.80;;;;;;;7.51;100.00;99124.69;4930805;29;20486;-63
2023/12/31 04:54:15;;;;;;;0.90;0.90;;;;;;;7.44;100.00;99127.59;4930996;29;20036;-63
2023/12/31 04:56:40;;;;;;;0.80;0.80;;;;;;;7.43;100.00;99125.88;4955747;28;20119;-63
2023/12/31 04:59:05;;;;;;;0.80;0.80;;;;;;;7.36;100.00;99122.59;4950546;29;20091;-63
2023/12/31 05:01:34;;;;;;;0.80;0.80;;;;;;;7.35;100.00;99138.47;4951024;28;20675;-62
2023/12/31 05:04:02;;;;;;;0.70;0.70;;;;;;;7.34;100.00;99131.47;4961839;28;20057;-63
2023/12/31 05:06:28;;;;;;;0.85;0.85;;;;;;;7.33;100.00;99132.41;4971021;28;20038;-63
2023/12/31 05:08:53;;;;;;;0.88;0.88;;;;;;;7.31;100.00;99137.75;4970797;28;20027;-63
2023/12/31 05:11:19;;;;;;;0.80;0.80;;;;;;;7.27;100.00;99128.16;4973646;28;20022;-64
2023/12/31 05:13:44;;;;;;;0.70;0.70;;;;;;;7.31;100.00;99139.50;4961023;28;20037;-63
2023/12/31 05:16:13;;;;;;;0.90;0.90;;;;;;;7.32;100.00;99128.88;4952119;29;20029;-63
2023/12/31 05:18:40;;;;;;;0.88;0.88;;;;;;;7.36;100.00;99127.00;4954323;28;20039;-63
2023/12/31 05:21:05;;;;;;;0.90;0.90;;;;;;;7.37;100.00;99131.34;4963000;28;20030;-63
2023/12/31 05:23:31;;;;;;;0.70;0.70;;;;;;;7.39;100.00;99121.59;4970999;28;20041;-63
2023/12/31 05:25:57;;;;;;;0.80;0.80;;;;;;;7.39;100.00;99130.41;4967554;28;20034;-63
2023/12/31 05:28:22;;;;;;;0.80;0.80;;;;;;;7.44;100.00;99128.47;4971386;28;20022;-63
2023/12/31 05:30:48;;;;;;;0.75;0.75;;;;;;;7.47;100.00;99128.38;4966839;28;20030;-63
2023/12/31 05:33:13;;;;;;;0.82;0.82;;;;;;;7.47;100.00;99117.78;4952530;29;20027;-64
2023/12/31 05:35:39;;;;;;;0.80;0.80;;;;;;;7.62;100.00;99122.53;4955294;28;20031;-63
2023/12/31 05:38:04;;;;;;;0.98;0.98;;;;;;;7.67;100.00;99131.19;4967616;28;20031;-63
2023/12/31 05:40:29;;;;;;;0.90;0.90;;;;;;;7.71;100.00;99138.09;4972780;28;20027;-63
2023/12/31 05:42:55;;;;;;;0.80;0.80;;;;;;;7.75;100.00;99138.84;4969804;28;20038;-63
2023/12/31 05:45:21;;;;;;;0.90;0.90;;;;;;;7.71;100.00;99122.19;4971295;28;20030;-62
2023/12/31 05:47:46;;;;;;;0.90;0.90;;;;;;;7.76;100.00;99125.56;4971258;28;20060;-63
2023/12/31 05:50:13;;;;;;;0.80;0.80;;;;;;;7.73;100.00;99124.78;4968032;28;20470;-63
2023/12/31 05:52:38;;;;;;;0.80;0.80;;;;;;;7.71;100.00;99116.91;4965838;28;20110;-63
2023/12/31 05:55:04;;;;;;;0.70;0.70;;;;;;;7.68;100.00;99119.66;4967685;28;20050;-60
2023/12/31 05:57:29;;;;;;;0.90;0.90;;;;;;;7.65;100.00;99113.63;4968629;28;20448;-60
2023/12/31 05:59:55;;;;;;;0.63;0.63;;;;;;;7.37;100.00;99075.81;4971919;28;20023;-60
2023/12/31 06:02:20;;;;;;;0.80;0.80;;;;;;;7.57;100.00;99119.19;4956113;28;20452;-61
2023/12/31 06:04:46;;;;;;;0.80;0.80;;;;;;;7.60;100.00;99116.44;4983547;28;20033;-59
2023/12/31 06:07:11;;;;;;;0.90;0.90;;;;;;;7.64;100.00;99111.91;4974553;28;20623;-60
2023/12/31 06:09:36;;;;;;;0.70;0.70;;;;;;;7.66;100.00;99110.91;4958881;28;20034;-60
2023/12/31 06:12:02;;;;;;;0.80;0.80;;;;;;;7.66;100.00;99102.13;4990084;28;20018;-60
2023/12/31 06:14:27;;;;;;;0.90;0.90;;;;;;;7.62;100.00;99098.72;4982745;28;20023;-60
2023/12/31 06:16:53;;;;;;;0.80;0.80;;;;;;;7.64;100.00;99098.66;4969772;28;20382;-60
2023/12/31 06:19:18;;;;;;;0.90;0.90;;;;;;;7.61;100.00;99104.91;4972549;28;20062;-60
2023/12/31 06:21:44;;;;;;;0.95;0.95;;;;;;;7.59;100.00;99085.63;4950972;28;20034;-60
2023/12/31 06:24:09;;;;;;;0.90;0.90;;;;;;;7.60;100.00;99087.31;4972080;28;20026;-59
2023/12/31 06:26:34;;;;;;;0.80;0.80;;;;;;;7.54;100.00;99074.31;4956535;28;20491;-60
2023/12/31 06:29:00;;;;;;;0.70;0.70;;;;;;;7.56;100.00;99079.56;4972219;28;20627;-60
2023/12/31 06:31:25;;;;;;;0.85;0.85;;;;;;;7.64;100.00;99085.44;4967965;28;20028;-60
2023/12/31 06:33:51;;;;;;;0.80;0.80;;;;;;;7.72;100.00;99070.16;4964414;28;20560;-60
2023/12/31 06:36:17;;;;;;;1.00;1.00;;;;;;;7.79;100.00;99069.84;4956159;28;20045;-60
2023/12/31 06:38:43;;;;;;;0.75;0.75;;;;;;;7.86;100.00;99067.84;4952715;29;20368;-60
2023/12/31 06:41:08;;;;;;;0.80;0.80;;;;;;;7.91;100.00;99066.75;4957162;28;20423;-60
2023/12/31 06:43:36;;;;;;;0.90;0.90;;;;;;;7.97;100.00;99066.53;4971739;28;20090;-59
2023/12/31 06:46:03;;;;;;;0.80;0.80;;;;;;;8.03;100.00;99061.03;4962900;28;20035;-60
2023/12/31 06:48:28;;;;;;;0.90;0.90;;;;;;;8.11;100.00;99065.13;4951835;29;20052;-60
2023/12/31 06:50:54;;;;;;;0.90;0.90;;;;;;;8.16;100.00;99065.84;4955037;28;20038;-60
2023/12/31 06:53:19;;;;;;;0.90;0.90;;;;;;;8.20;100.00;99059.50;4951457;29;20031;-60
2023/12/31 06:55:45;;;;;;;0.88;0.88;;;;;;;8.23;100.00;99056.75;4952346;28;20047;-60
2023/12/31 06:58:11;;;;;;;0.90;0.90;;;;;;;8.21;100.00;99063.88;4969753;28;20099;-60
2023/12/31 07:00:36;;;;;;;0.80;0.80;;;;;;;8.23;100.00;99060.28;4969351;28;20038;-60
2023/12/31 07:03:02;;;;;;;0.70;0.70;;;;;;;8.26;100.00;99044.28;4965894;28;20492;-60
2023/12/31 07:05:27;;;;;;;0.70;0.70;;;;;;;8.29;100.00;99045.94;4968246;28;20082;-64
2023/12/31 07:07:53;;;;;;;0.90;0.90;;;;;;;8.28;100.00;99049.50;4970168;28;20033;-62
2023/12/31 07:10:18;;;;;;;0.80;0.80;;;;;;;8.28;100.00;99046.88;4964050;28;20106;-63
2023/12/31 07:12:44;;;;;;;0.80;0.80;;;;;;;8.33;100.00;99042.25;4949154;29;20031;-64
2023/12/31 07:15:10;;;;;;;0.90;0.90;;;;;;;8.34;100.00;99041.31;4962051;28;20105;-63
2023/12/31 07:17:35;;;;;;;0.82;0.82;;;;;;;8.30;100.00;99039.72;4969359;28;20440;-64
2023/12/31 07:20:04;;;;;;;0.90;0.90;;;;;;;8.30;100.00;99034.44;4962434;28;20038;-63
2023/12/31 07:22:29;;;;;;;0.80;0.80;;;;;;;8.12;100.00;99011.28;4963190;28;20041;-63
2023/12/31 07:24:54;;;;;;;1.00;1.00;;;;;;;8.31;100.00;99030.84;4965484;28;20039;-64
2023/12/31 07:27:20;;;;;;;0.80;0.80;;;;;;;8.38;100.00;99024.38;4981037;28;20034;-63
2023/12/31 07:29:45;;;;;;;0.80;0.80;;;;;;;8.40;100.00;99012.78;4988970;28;20030;-63
2023/12/31 07:32:11;;;;;;;0.82;0.82;;;;;;;8.42;100.00;99015.41;4968060;28;20442;-64
2023/12/31 07:34:36;;;;;;;0.80;0.80;;;;;;;8.42;100.00;99002.16;4968988;28;20612;-63
2023/12/31 07:37:02;;;;;;;0.80;0.80;;;;;;;8.44;100.00;99001.16;4982581;28;20081;-63
2023/12/31 07:39:27;;;;;;;1.00;1.00;;;;;;;8.43;100.00;98996.78;4969351;28;20548;-63
2023/12/31 07:41:52;;;;;;;0.80;0.80;;;;;;;8.45;100.00;98994.09;4966835;28;20027;-64
2023/12/31 07:44:19;;;;;;;0.90;0.90;;;;;;;8.49;100.00;98985.06;4972254;28;20036;-63
2023/12/31 07:46:45;;;;;;;0.90;0.90;;;;;;;8.50;100.00;98981.50;4964739;28;20049;-63
2023/12/31 07:49:10;;;;;;;0.80;0.80;;;;;;;8.48;100.00;98967.44;4950601;29;20110;-63
2023/12/31 07:51:35;;;;;;;0.70;0.70;;;;;;;8.51;100.00;98969.97;4948453;29;20801;-63
2023/12/31 07:54:01;;;;;;;0.73;0.73;;;;;;;8.53;100.00;98970.78;4952333;28;20038;-64
2023/12/31 07:56:26;;;;;;;0.80;0.80;;;;;;;8.45;100.00;98970.22;4948636;29;20055;-64
2023/12/31 07:58:52;;;;;;;0.90;0.90;;;;;;;8.52;100.00;98969.03;4947703;29;20043;-63
2023/12/31 08:01:17;;;;;;;0.80;0.80;;;;;;;8.29;100.00;98929.38;4948995;28;20038;-63
2023/12/31 08:03:43;;;;;;;0.90;0.90;;;;;;;8.52;100.00;98969.03;4966261;28;20549;-63
2023/12/31 08:06:09;;;;;;;0.70;0.70;;;;;;;8.57;100.00;98975.00;4967777;28;20589;-63
2023/12/31 08:08:35;;;;;;;0.80;0.80;;;;;;;8.63;100.00;98974.78;4970293;28;20023;-63
2023/12/31 08:11:00;;;;;;;0.80;0.80;;;;;;;8.60;100.00;98961.66;4964522;28;20030;-64
2023/12/31 08:13:26;;;;;;;0.82;0.82;;;;;;;8.66;100.00;98969.34;4968651;28;20026;-64
2023/12/31 08:15:51;;;;;;;0.70;0.70;;;;;;;8.69;100.00;98969.22;4980526;28;21144;-63
2023/12/31 08:18:17;;;;;;;0.80;0.80;;;;;;;8.71;100.00;98970.03;4968586;28;20030;-64
2023/12/31 08:20:42;;;;;;;0.82;0.82;;;;;;;8.70;100.00;98966.50;4963602;28;20031;-63
2023/12/31 08:23:08;;;;;;;0.80;0.80;;;;;;;8.74;100.00;98969.88;4951012;28;20034;-63
2023/12/31 08:25:34;;;;;;;0.70;0.70;;;;;;;8.74;100.00;98970.75;4962884;28;20058;-63
2023/12/31 08:27:59;;;;;;;0.80;0.80;;;;;;;8.76;100.00;98970.69;4968479;28;20027;-62
2023/12/31 08:30:25;;;;;;;0.90;0.90;;;;;;;8.76;99.88;98962.75;4966625;28;20038;-62
2023/12/31 08:32:50;;;;;;;0.70;0.70;;;;;;;8.84;99.57;98965.91;4968936;28;20035;-64
2023/12/31 08:35:16;;;;;;;0.80;0.80;;;;;;;8.78;99.31;98939.69;4963443;28;20031;-63
2023/12/31 08:37:41;;;;;;;0.82;0.82;;;;;;;8.85;99.35;98941.13;4957911;28;20038;-63
2023/12/31 08:40:07;;;;;;;0.80;0.80;;;;;;;8.93;99.46;98944.31;4948855;29;20452;-63
2023/12/31 08:42:32;;;;;;;0.80;0.80;;;;;;;8.94;98.68;98932.78;4953471;28;20030;-63
2023/12/31 08:44:58;;;;;;;0.80;0.80;;;;;;;9.06;98.45;98932.25;4964442;28;20039;-63
2023/12/31 08:47:23;;;;;;;0.80;0.80;;;;;;;9.12;98.74;98931.97;4953523;28;20092;-64
2023/12/31 08:49:49;;;;;;;0.80;0.80;;;;;;;9.24;97.94;98934.09;4960478;28;20038;-67
2023/12/31 08:52:14;;;;;;;0.90;0.90;;;;;;;9.27;97.00;98931.31;4960531;28;20034;-65
2023/12/31 08:54:39;;;;;;;0.70;0.70;;;;;;;9.38;96.68;98921.06;4953223;28;20517;-66
2023/12/31 08:57:05;;;;;;;0.80;0.80;;;;;;;9.50;95.69;98920.53;4947589;28;20035;-64
2023/12/31 08:59:31;;;;;;;0.80;0.80;;;;;;;9.56;95.27;98917.56;4942623;29;20034;-65
2023/12/31 09:01:56;;;;;;;0.80;0.80;;;;;;;9.70;94.78;98920.47;4934493;29;20034;-65
2023/12/31 09:04:22;;;;;;;0.90;0.90;;;;;;;9.77;94.23;98927.19;4928733;29;20050;-65
2023/12/31 09:06:48;;;;;;;0.70;0.70;;;;;;;9.83;93.18;98924.28;4934944;29;20031;-65
2023/12/31 09:09:14;;;;;;;0.80;0.80;;;;;;;9.89;92.02;98921.31;4929196;29;20028;-67
2023/12/31 09:11:39;;;;;;;0.80;0.80;;;;;;;9.94;91.37;98911.34;4939547;29;20046;-66
2023/12/31 09:14:05;;;;;;;0.80;0.80;;;;;;;9.96;91.48;98901.50;4925363;29;20023;-66
2023/12/31 09:16:30;;;;;;;0.80;0.80;;;;;;;9.99;88.77;98887.19;4937105;29;20032;-66
2023/12/31 09:18:56;;;;;;;0.70;0.70;;;;;;;10.10;87.70;98877.81;4931118;29;20039;-68
2023/12/31 09:21:23;;;;;;;0.70;0.70;;;;;;;10.25;86.14;98890.34;4934082;29;20428;-66
2023/12/31 09:23:48;;;;;;;0.80;0.80;;;;;;;10.32;85.44;98889.13;4930934;29;20434;-67
2023/12/31 09:26:14;;;;;;;0.80;0.80;;;;;;;10.46;86.15;98889.28;4930400;29;20036;-67
2023/12/31 09:28:42;;;;;;;0.70;0.70;;;;;;;10.47;85.87;98877.72;4932316;29;20038;-68
2023/12/31 09:31:08;;;;;;;0.73;0.73;;;;;;;10.53;85.14;98874.75;4949584;29;20118;-67
2023/12/31 09:33:33;;;;;;;0.70;0.70;;;;;;;10.64;84.17;98876.88;4942085;28;20031;-67
2023/12/31 09:35:59;;;;;;;0.70;0.70;;;;;;;10.74;84.32;98882.59;4955369;28;20034;-68
2023/12/31 09:38:24;;;;;;;0.70;0.70;;;;;;;10.76;83.85;98864.75;4947673;28;20110;-67
2023/12/31 09:40:51;;;;;;;0.70;0.70;;;;;;;10.88;83.94;98869.41;4932021;29;20741;-67
2023/12/31 09:43:20;;;;;;;0.80;0.80;;;;;;;10.90;84.24;98867.53;4934655;29;20964;-67
2023/12/31 09:45:48;;;;;;;0.70;0.70;;;;;;;10.97;84.21;98879.59;4949058;29;20039;-67
2023/12/31 09:48:15;;;;;;;0.70;0.70;;;;;;;10.97;83.37;98879.59;4943259;29;20513;-66
2023/12/31 09:50:41;;;;;;;0.70;0.70;;;;;;;11.04;83.48;98878.31;4949665;28;20035;-67
2023/12/31 09:53:08;;;;;;;0.70;0.70;;;;;;;11.05;82.96;98878.25;4945543;29;20031;-67
2023/12/31 09:55:35;;;;;;;0.70;0.70;;;;;;;11.05;84.04;98882.72;4931771;29;20070;-66
2023/12/31 09:58:03;;;;;;;0.77;0.77;;;;;;;11.02;83.82;98888.19;4932014;29;20484;-67
2023/12/31 10:00:28;;;;;;;0.80;0.80;;;;;;;11.00;84.94;98892.72;4948936;28;20455;-67
2023/12/31 10:02:54;;;;;;;0.70;0.70;;;;;;;10.95;85.16;98889.44;4951168;29;20069;-66
2023/12/31 10:05:25;;;;;;;0.80;0.80;;;;;;;10.88;83.74;98888.03;4951106;28;20045;-67
2023/12/31 10:07:52;;;;;;;0.73;0.73;;;;;;;10.95;84.61;98892.09;4945514;28;20098;-67
2023/12/31 10:10:19;;;;;;;0.70;0.70;;;;;;;10.98;83.83;98895.47;4970486;28;20037;-67
2023/12/31 10:12:45;;;;;;;0.70;0.70;;;;;;;11.02;84.39;98904.16;4962691;28;20062;-66
2023/12/31 10:15:10;;;;;;;0.70;0.70;;;;;;;10.99;84.75;98909.66;4951378;29;20447;-67
2023/12/31 10:17:37;;;;;;;0.80;0.80;;;;;;;10.88;84.62;98918.16;4933703;29;20079;-67
2023/12/31 10:20:04;;;;;;;0.70;0.70;;;;;;;10.84;85.18;98931.72;4951960;29;20030;-67
2023/12/31 10:22:31;;;;;;;0.77;0.77;;;;;;;10.81;85.00;98942.50;4947558;29;20027;-67
2023/12/31 10:25:13;;;;;;;0.70;0.70;;;;;;;10.67;86.38;98995.50;4947023;29;20035;-67
2023/12/31 10:27:38;;;;;;;0.80;0.80;;;;;;;10.63;88.85;99027.59;4932349;29;20048;-67
2023/12/31 10:30:11;;;;;;;0.70;0.70;;;;;;;10.46;92.80;99043.47;4915225;29;20396;-67
2023/12/31 10:32:37;;;;;;;0.70;0.70;;;;;;;10.33;96.13;99058.28;4951037;29;20031;-67
2023/12/31 10:35:04;;;;;;;0.70;0.70;;;;;;;10.28;98.10;99049.66;4948009;29;20023;-67
2023/12/31 10:37:29;;;;;;;0.80;0.80;;;;;;;10.25;100.00;99028.53;4950114;29;20027;-67
2023/12/31 10:39:55;;;;;;;0.80;0.80;;;;;;;10.23;100.00;99029.56;4954465;28;20038;-67
2023/12/31 10:42:22;;;;;;;0.70;0.70;;;;;;;10.26;100.00;99021.44;4969850;28;20423;-67
2023/12/31 10:44:53;;;;;;;0.70;0.70;;;;;;;10.27;100.00;99023.16;4946502;29;20031;-68
2023/12/31 10:47:19;;;;;;;0.70;0.70;;;;;;;10.24;100.00;99032.16;4948853;29;20102;-66
2023/12/31 10:49:48;;;;;;;0.80;0.80;;;;;;;10.31;100.00;99014.94;4929057;29;20042;-67
2023/12/31 10:52:15;;;;;;;0.70;0.70;;;;;;;10.33;100.00;99009.56;4949969;29;20063;-67
2023/12/31 10:54:51;;;;;;;0.80;0.80;;;;;;;10.42;100.00;99027.75;4948238;29;20058;-67
2023/12/31 10:57:16;;;;;;;0.77;0.77;;;;;;;10.42;100.00;99025.97;4949874;29;20049;-67
2023/12/31 10:59:43;;;;;;;0.70;0.70;;;;;;;10.43;100.00;99038.31;4967685;28;20026;-67
2023/12/31 11:02:16;;;;;;;0.70;0.70;;;;;;;10.40;100.00;99043.78;4969827;28;20042;-67
2023/12/31 11:04:44;;;;;;;0.80;0.80;;;;;;;10.48;100.00;99049.59;4970448;28;20042;-67
2023/12/31 11:07:11;;;;;;;0.80;0.80;;;;;;;10.48;100.00;99041.59;4968586;28;20023;-67
2023/12/31 11:09:37;;;;;;;0.70;0.70;;;;;;;10.49;100.00;99059.28;4970365;28;20400;-67
2023/12/31 11:12:02;;;;;;;0.80;0.80;;;;;;;10.46;100.00;99070.06;4970428;28;20034;-68
2023/12/31 11:14:31;;;;;;;0.80;0.80;;;;;;;10.44;100.00;99077.22;4970796;28;20089;-67
2023/12/31 11:17:39;;;;;;;0.80;0.80;;;;;;;10.43;100.00;99079.97;4968277;28;20031;-68
2023/12/31 11:20:25;;;;;;;0.80;0.80;;;;;;;10.46;100.00;99090.47;4946398;28;20486;-68
2023/12/31 11:23:00;;;;;;;0.77;0.77;;;;;;;10.47;100.00;99087.75;4970989;28;20116;-67
2023/12/31 11:25:26;;;;;;;0.80;0.80;;;;;;;10.43;100.00;99078.19;4967198;28;20121;-68
2023/12/31 11:27:54;;;;;;;0.80;0.80;;;;;;;10.43;100.00;99075.53;4953155;28;20031;-67